createdAt,value
2022-10-17T00:01:18.371Z,15.55
2022-10-17T00:03:46.245Z,17.88
2022-10-17T00:06:15.646Z,16.92
2022-10-17T00:08:44.603Z,18.38
2022-10-17T00:11:15.128Z,18.77
2022-10-17T00:13:42.942Z,16.95
2022-10-17T00:16:12.046Z,16.75
2022-10-17T00:18:40.471Z,17.65
2022-10-17T00:21:15.652Z,17.92
2022-10-17T00:23:43.473Z,18.98
2022-10-17T00:26:11.352Z,17.50
2022-10-17T00:28:39.170Z,17.63
2022-10-17T00:31:07.914Z,18.13
2022-10-17T00:33:37.380Z,18.40
2022-10-17T00:36:05.735Z,17.00
2022-10-17T00:38:33.643Z,16.13
2022-10-17T00:41:01.474Z,17.00
2022-10-17T00:43:29.821Z,17.88
2022-10-17T00:45:58.077Z,17.95
2022-10-17T00:48:26.386Z,17.67
2022-10-17T00:50:56.011Z,17.60
2022-10-17T00:53:23.955Z,17.23
2022-10-17T00:55:52.855Z,16.67
2022-10-17T00:58:21.129Z,17.80
2022-10-17T01:00:49.306Z,16.85
2022-10-17T01:03:17.131Z,17.17
2022-10-17T01:08:14.497Z,17.40
2022-10-17T01:10:47.382Z,16.92
2022-10-17T01:13:17.603Z,16.73
2022-10-17T01:15:51.568Z,16.17
2022-10-17T01:18:25.583Z,17.73
2022-10-17T01:21:03.213Z,17.30
2022-10-17T01:24:03.905Z,16.77
2022-10-17T01:26:39.972Z,16.25
2022-10-17T01:29:20.300Z,17.23
2022-10-17T01:31:51.910Z,16.85
2022-10-17T01:34:23.339Z,16.95
2022-10-17T01:36:53.284Z,16.58
2022-10-17T01:39:25.850Z,17.20
2022-10-17T01:41:59.330Z,17.05
2022-10-17T01:44:30.936Z,16.20
2022-10-17T01:47:01.566Z,16.30
2022-10-17T01:49:32.445Z,16.00
2022-10-17T01:52:03.898Z,17.27
2022-10-17T01:54:33.966Z,15.77
2022-10-17T01:57:05.343Z,17.77
2022-10-17T01:59:37.396Z,17.25
2022-10-17T02:02:08.576Z,17.38
2022-10-17T02:04:36.374Z,16.50
2022-10-17T02:07:08.761Z,17.45
2022-10-17T02:09:37.098Z,16.75
2022-10-17T02:12:22.450Z,16.48
2022-10-17T02:14:58.483Z,17.02
2022-10-17T02:17:32.684Z,16.90
2022-10-17T02:20:03.634Z,15.82
2022-10-17T02:22:37.027Z,16.83
2022-10-17T02:25:10.809Z,15.10
2022-10-17T02:27:44.941Z,15.75
2022-10-17T02:30:13.472Z,15.68
2022-10-17T02:32:48.102Z,17.08
2022-10-17T02:35:22.615Z,17.10
2022-10-17T02:37:52.276Z,17.55
2022-10-17T02:40:23.555Z,17.13
2022-10-17T02:42:53.589Z,16.60
2022-10-17T02:45:24.063Z,16.92
2022-10-17T02:47:55.474Z,15.15
2022-10-17T02:50:25.207Z,15.68
2022-10-17T02:52:56.103Z,15.45
2022-10-17T02:55:26.129Z,16.55
2022-10-17T02:57:55.547Z,15.02
2022-10-17T03:00:24.898Z,14.90
2022-10-17T03:02:54.599Z,15.35
2022-10-17T03:05:23.497Z,16.33
2022-10-17T03:07:51.255Z,15.18
2022-10-17T03:10:19.642Z,14.85
2022-10-17T03:12:48.376Z,14.90
2022-10-17T03:15:16.557Z,15.27
2022-10-17T03:20:15.609Z,15.35
2022-10-17T03:22:43.707Z,14.90
2022-10-17T03:25:11.607Z,17.63
2022-10-17T03:27:39.373Z,15.45
2022-10-17T03:32:35.863Z,14.88
2022-10-17T03:35:04.035Z,14.52
2022-10-17T03:37:33.449Z,14.32
2022-10-17T03:40:01.268Z,15.38
2022-10-17T03:42:30.429Z,13.27
2022-10-17T03:44:58.989Z,13.43
2022-10-17T03:47:26.987Z,13.70
2022-10-17T03:49:55.102Z,14.32
2022-10-17T03:52:23.202Z,14.15
2022-10-17T03:54:52.806Z,13.70
2022-10-17T03:57:20.745Z,14.77
2022-10-17T03:59:48.813Z,14.65
2022-10-17T04:02:20.896Z,14.75
2022-10-17T04:04:50.156Z,13.90
2022-10-17T04:07:18.251Z,14.00
2022-10-17T04:09:47.359Z,13.77
2022-10-17T04:12:21.092Z,14.02
2022-10-17T04:14:49.376Z,14.43
2022-10-17T04:17:18.074Z,14.55
2022-10-17T04:19:46.140Z,15.45
2022-10-17T04:22:16.824Z,13.73
2022-10-17T04:27:27.669Z,13.50
2022-10-17T04:29:56.541Z,16.00
2022-10-17T04:32:26.780Z,20.10
2022-10-17T04:34:59.533Z,21.35
2022-10-17T04:37:30.250Z,13.95
2022-10-17T04:39:58.784Z,13.75
2022-10-17T04:42:32.751Z,14.32
2022-10-17T04:45:00.664Z,14.25
2022-10-17T04:47:28.765Z,14.30
2022-10-17T04:49:57.102Z,14.38
2022-10-17T04:52:25.274Z,14.65
2022-10-17T04:54:54.066Z,14.07
2022-10-17T04:57:22.545Z,14.70
2022-10-17T04:59:59.054Z,15.48
2022-10-17T05:02:47.322Z,13.45
2022-10-17T05:05:15.899Z,15.13
2022-10-17T05:07:45.743Z,13.52
2022-10-17T05:10:18.534Z,13.88
2022-10-17T05:12:49.109Z,12.98
2022-10-17T05:15:20.258Z,14.80
2022-10-17T05:17:48.121Z,13.45
2022-10-17T05:20:16.012Z,14.65
2022-10-17T05:22:44.105Z,20.17
2022-10-17T05:25:12.695Z,16.98
2022-10-17T05:27:41.010Z,14.77
2022-10-17T05:30:09.680Z,13.45
2022-10-17T05:32:40.167Z,13.82
2022-10-17T05:35:09.400Z,14.80
2022-10-17T05:37:38.419Z,13.48
2022-10-17T05:40:07.104Z,15.35
2022-10-17T05:42:35.412Z,13.90
2022-10-17T05:45:03.668Z,14.20
2022-10-17T05:47:32.014Z,12.75
2022-10-17T05:50:01.494Z,13.90
2022-10-17T05:52:37.046Z,13.93
2022-10-17T05:55:10.819Z,15.35
2022-10-17T05:57:38.774Z,13.02
2022-10-17T06:00:10.982Z,12.70
2022-10-17T06:02:51.976Z,12.30
2022-10-17T06:05:22.154Z,12.88
2022-10-17T06:07:52.629Z,13.10
2022-10-17T06:10:21.941Z,13.07
2022-10-17T06:12:50.148Z,13.02
2022-10-17T06:15:18.362Z,12.88
2022-10-17T06:17:51.541Z,12.57
2022-10-17T06:20:19.803Z,14.38
2022-10-17T06:22:49.740Z,12.93
2022-10-17T06:25:26.844Z,12.93
2022-10-17T06:27:54.783Z,12.90
2022-10-17T06:30:23.177Z,13.05
2022-10-17T06:32:51.199Z,13.30
2022-10-17T06:35:19.330Z,14.05
2022-10-17T06:37:49.498Z,13.73
2022-10-17T06:40:18.710Z,13.60
2022-10-17T06:42:47.098Z,15.60
2022-10-17T06:45:26.523Z,15.48
2022-10-17T06:48:15.025Z,14.05
2022-10-17T06:50:54.379Z,14.65
2022-10-17T06:53:28.579Z,14.18
2022-10-17T06:56:11.243Z,15.57
2022-10-17T06:59:08.421Z,14.93
2022-10-17T07:01:43.086Z,17.30
2022-10-17T07:04:14.909Z,16.00
2022-10-17T07:06:43.020Z,16.08
2022-10-17T07:09:19.318Z,15.52
2022-10-17T07:11:47.735Z,15.52
2022-10-17T07:14:19.000Z,15.43
2022-10-17T07:16:47.985Z,16.20
2022-10-17T07:19:21.455Z,16.88
2022-10-17T07:21:51.011Z,15.90
2022-10-17T07:24:20.214Z,15.25
2022-10-17T07:26:53.495Z,14.82
2022-10-17T07:29:21.729Z,15.48
2022-10-17T07:32:04.063Z,15.52
2022-10-17T07:34:31.838Z,14.93
2022-10-17T07:37:00.499Z,15.43
2022-10-17T07:39:30.757Z,14.65
2022-10-17T07:41:59.706Z,16.00
2022-10-17T07:44:27.525Z,19.48
2022-10-17T07:46:56.652Z,15.90
2022-10-17T07:49:24.682Z,16.00
2022-10-17T07:51:52.668Z,14.57
2022-10-17T07:54:20.460Z,15.52
2022-10-17T07:56:51.004Z,14.98
2022-10-17T07:59:19.065Z,14.63
2022-10-17T08:01:47.098Z,15.00
2022-10-17T08:04:16.826Z,14.15
2022-10-17T08:06:44.671Z,13.93
2022-10-17T08:09:12.406Z,16.48
2022-10-17T08:11:40.126Z,15.60
2022-10-17T08:14:09.216Z,15.40
2022-10-17T08:16:37.439Z,16.25
2022-10-17T08:19:05.390Z,14.50
2022-10-17T08:21:33.268Z,15.15
2022-10-17T08:24:02.871Z,15.88
2022-10-17T08:26:30.880Z,14.52
2022-10-17T08:28:58.682Z,15.38
2022-10-17T08:31:28.345Z,15.85
2022-10-17T08:33:56.175Z,14.52
2022-10-17T08:36:24.052Z,15.40
2022-10-17T08:38:53.137Z,14.57
2022-10-17T08:41:29.488Z,14.77
2022-10-17T08:44:03.637Z,15.27
2022-10-17T08:46:35.547Z,16.42
2022-10-17T08:49:06.608Z,14.52
2022-10-17T08:51:38.442Z,13.27
2022-10-17T08:54:10.524Z,13.68
2022-10-17T08:56:48.932Z,14.27
2022-10-17T08:59:18.944Z,12.75
2022-10-17T09:01:51.487Z,12.00
2022-10-17T09:04:37.400Z,13.05
2022-10-17T09:07:07.289Z,12.68
2022-10-17T09:09:37.891Z,12.13
2022-10-17T09:12:12.785Z,12.10
2022-10-17T09:14:51.995Z,8.75
2022-10-17T09:17:27.904Z,9.05
2022-10-17T09:20:01.149Z,7.57
2022-10-17T09:22:31.426Z,10.48
2022-10-17T09:25:00.428Z,8.65
2022-10-17T09:27:33.431Z,8.57
2022-10-17T09:30:40.160Z,8.40
2022-10-17T09:33:23.163Z,7.30
2022-10-17T09:36:00.455Z,8.07
2022-10-17T09:38:31.517Z,7.63
2022-10-17T09:41:00.869Z,6.88
2022-10-17T09:43:28.827Z,13.68
2022-10-17T09:46:01.044Z,14.00
2022-10-17T09:48:33.022Z,8.02
2022-10-17T09:51:21.768Z,7.53
2022-10-17T09:53:51.533Z,7.55
2022-10-17T09:56:20.059Z,7.47
2022-10-17T09:58:49.005Z,7.30
2022-10-17T10:01:21.153Z,7.53
2022-10-17T10:04:10.275Z,7.70
2022-10-17T10:06:38.864Z,7.18
2022-10-17T10:09:07.711Z,8.20
2022-10-17T10:11:49.332Z,7.70
2022-10-17T10:14:22.435Z,7.20
2022-10-17T10:16:50.698Z,7.63
2022-10-17T10:19:29.179Z,7.13
2022-10-17T10:21:58.105Z,7.35
2022-10-17T10:24:30.817Z,7.18
2022-10-17T10:27:04.598Z,7.30
2022-10-17T10:29:34.179Z,6.85
2022-10-17T10:32:12.330Z,6.63
2022-10-17T10:37:18.622Z,6.13
2022-10-17T10:39:48.438Z,5.85
2022-10-17T10:42:24.359Z,5.55
2022-10-17T10:44:53.066Z,6.38
2022-10-17T10:47:22.519Z,6.07
2022-10-17T10:49:52.276Z,5.95
2022-10-17T10:52:29.866Z,7.55
2022-10-17T10:55:01.715Z,5.97
2022-10-17T10:57:32.082Z,5.88
2022-10-17T11:00:07.628Z,6.47
2022-10-17T11:02:38.258Z,6.53
2022-10-17T11:05:10.627Z,6.20
2022-10-17T11:07:41.824Z,6.07
2022-10-17T11:10:13.421Z,6.20
2022-10-17T11:15:19.790Z,6.65
2022-10-17T11:17:53.485Z,6.72
2022-10-17T11:20:23.165Z,6.40
2022-10-17T11:22:55.409Z,14.20
2022-10-17T11:25:30.220Z,6.03
2022-10-17T11:28:02.295Z,7.75
2022-10-17T11:30:36.664Z,16.23
2022-10-17T11:33:06.363Z,6.18
2022-10-17T11:35:37.276Z,6.28
2022-10-17T11:38:09.122Z,12.45
2022-10-17T11:40:38.600Z,13.02
2022-10-17T11:43:07.928Z,6.13
2022-10-17T11:45:37.835Z,7.05
2022-10-17T11:48:07.508Z,6.72
2022-10-17T11:55:53.809Z,6.07
2022-10-17T12:01:08.772Z,8.80
2022-10-17T12:03:44.067Z,5.10
2022-10-17T12:06:15.107Z,6.32
2022-10-17T12:08:46.286Z,5.10
2022-10-17T12:11:29.404Z,4.75
2022-10-17T12:13:57.911Z,4.68
2022-10-17T12:16:49.768Z,4.90
2022-10-17T12:19:32.621Z,5.00
2022-10-17T12:22:15.247Z,4.80
2022-10-17T12:24:44.321Z,4.13
2022-10-17T12:27:32.733Z,4.28
2022-10-17T12:32:36.806Z,4.22
2022-10-17T12:35:20.604Z,5.20
2022-10-17T12:38:03.751Z,4.88
2022-10-17T12:40:53.790Z,5.43
2022-10-17T12:43:44.041Z,4.60
2022-10-17T12:46:14.335Z,4.40
2022-10-17T12:48:57.072Z,4.05
2022-10-17T12:51:40.566Z,4.05
2022-10-17T12:54:12.235Z,4.25
2022-10-17T12:56:41.269Z,4.32
2022-10-17T12:59:10.448Z,4.47
2022-10-17T13:01:41.108Z,5.93
2022-10-17T13:04:11.860Z,5.38
2022-10-17T13:06:40.543Z,3.70
2022-10-17T13:09:10.972Z,3.17
2022-10-17T13:11:40.751Z,4.00
2022-10-17T13:14:12.975Z,3.42
2022-10-17T13:16:51.644Z,4.40
2022-10-17T13:19:23.433Z,4.82
2022-10-17T13:21:51.865Z,3.58
2022-10-17T13:24:23.664Z,3.42
2022-10-17T13:26:51.469Z,3.30
2022-10-17T13:29:20.458Z,3.47
2022-10-17T13:31:53.442Z,3.60
2022-10-17T13:34:22.055Z,3.33
2022-10-17T13:36:53.095Z,4.00
2022-10-17T13:39:32.373Z,4.60
2022-10-17T13:42:18.321Z,4.20
2022-10-17T13:44:47.026Z,4.00
2022-10-17T13:47:23.757Z,3.90
2022-10-17T13:49:55.228Z,3.60
2022-10-17T13:52:24.615Z,3.47
2022-10-17T13:54:53.675Z,3.45
2022-10-17T13:57:24.317Z,3.67
2022-10-17T13:59:53.606Z,3.80
2022-10-17T14:02:22.370Z,3.40
2022-10-17T14:05:16.844Z,3.65
2022-10-17T14:08:09.910Z,4.05
2022-10-17T14:10:36.808Z,4.05
2022-10-17T14:13:05.498Z,4.18
2022-10-17T14:15:35.212Z,3.60
2022-10-17T14:18:07.713Z,4.38
2022-10-17T14:21:19.895Z,3.97
2022-10-17T14:23:34.207Z,3.63
2022-10-17T14:26:05.723Z,3.45
2022-10-17T14:28:33.705Z,3.60
2022-10-17T14:31:11.651Z,3.58
2022-10-17T14:33:42.575Z,3.97
2022-10-17T14:36:13.818Z,3.88
2022-10-17T14:38:45.830Z,3.53
2022-10-17T14:41:41.278Z,3.72
2022-10-17T14:44:06.592Z,3.80
2022-10-17T14:46:35.940Z,3.47
2022-10-17T14:49:05.960Z,3.88
2022-10-17T14:51:44.993Z,3.75
2022-10-17T14:54:25.909Z,3.53
2022-10-17T14:56:55.009Z,3.65
2022-10-17T14:59:52.215Z,4.35
2022-10-17T15:02:13.358Z,4.20
2022-10-17T15:04:41.168Z,3.85
2022-10-17T15:07:11.738Z,5.40
2022-10-17T15:09:39.520Z,5.70
2022-10-17T15:12:08.992Z,3.95
2022-10-17T15:14:37.139Z,4.13
2022-10-17T15:17:06.467Z,4.35
2022-10-17T15:19:34.358Z,4.43
2022-10-17T15:22:02.118Z,4.13
2022-10-17T15:24:31.360Z,4.10
2022-10-17T15:26:59.101Z,4.47
2022-10-17T15:29:27.174Z,4.50
2022-10-17T15:31:55.089Z,4.45
2022-10-17T15:34:22.849Z,5.15
2022-10-17T15:36:51.723Z,3.90
2022-10-17T15:39:19.659Z,4.00
2022-10-17T15:41:49.382Z,4.32
2022-10-17T15:44:17.574Z,5.55
2022-10-17T15:46:45.449Z,4.75
2022-10-17T15:49:14.166Z,5.25
2022-10-17T15:51:41.947Z,5.30
2022-10-17T15:54:10.061Z,5.65
2022-10-17T15:56:39.252Z,6.57
2022-10-17T15:59:12.530Z,5.75
2022-10-17T16:01:40.895Z,4.95
2022-10-17T16:04:12.924Z,5.18
2022-10-17T16:06:40.801Z,4.80
2022-10-17T16:09:08.554Z,5.32
2022-10-17T16:11:36.829Z,5.30
2022-10-17T16:14:07.063Z,5.35
2022-10-17T16:16:36.255Z,5.30
2022-10-17T16:19:04.478Z,6.40
2022-10-17T16:21:33.782Z,6.18
2022-10-17T16:24:01.690Z,6.22
2022-10-17T16:26:29.934Z,7.20
2022-10-17T16:28:58.332Z,7.10
2022-10-17T16:31:28.758Z,6.43
2022-10-17T16:33:59.027Z,5.70
2022-10-17T16:36:27.286Z,7.43
2022-10-17T16:38:55.074Z,9.10
2022-10-17T16:41:24.463Z,11.00
2022-10-17T16:43:53.250Z,11.55
2022-10-17T16:46:21.731Z,27.38
2022-10-17T16:48:49.488Z,30.13
2022-10-17T16:51:19.175Z,9.55
2022-10-17T16:53:47.102Z,8.23
2022-10-17T16:56:15.571Z,7.35
2022-10-17T16:58:43.660Z,7.25
2022-10-17T17:01:13.203Z,7.63
2022-10-17T17:03:42.290Z,7.65
2022-10-17T17:06:12.616Z,7.18
2022-10-17T17:08:42.917Z,7.55
2022-10-17T17:11:11.403Z,8.13
2022-10-17T17:13:39.492Z,7.55
2022-10-17T17:16:08.491Z,7.50
2022-10-17T17:18:36.884Z,13.82
2022-10-17T17:21:05.298Z,23.38
2022-10-17T17:23:34.641Z,32.67
2022-10-17T17:26:05.502Z,17.00
2022-10-17T17:28:33.970Z,12.45
2022-10-17T17:31:01.875Z,10.63
2022-10-17T17:33:30.144Z,11.95
2022-10-17T17:35:58.399Z,40.20
2022-10-17T17:38:26.170Z,27.33
2022-10-17T17:40:53.899Z,17.50
2022-10-17T17:43:23.438Z,11.35
2022-10-17T17:45:51.906Z,11.20
2022-10-17T17:48:20.280Z,10.57
2022-10-17T17:50:48.135Z,9.57
2022-10-17T17:53:16.943Z,10.23
2022-10-17T17:55:45.062Z,11.13
2022-10-17T17:58:13.065Z,19.60
2022-10-17T18:00:42.425Z,10.98
2022-10-17T18:03:10.895Z,11.27
2022-10-17T18:05:41.121Z,10.45
2022-10-17T18:08:08.934Z,10.25
2022-10-17T18:10:37.108Z,10.88
2022-10-17T18:13:04.977Z,11.00
2022-10-17T18:15:32.745Z,10.65
2022-10-17T18:18:02.401Z,10.73
2022-10-17T18:20:30.264Z,10.90
2022-10-17T18:23:00.583Z,12.50
2022-10-17T18:25:31.258Z,12.25
2022-10-17T18:27:59.057Z,10.73
2022-10-17T18:30:28.122Z,10.50
2022-10-17T18:32:59.035Z,15.05
2022-10-17T18:35:28.374Z,46.50
2022-10-17T18:37:57.079Z,46.75
2022-10-17T18:40:24.950Z,21.30
2022-10-17T18:42:52.847Z,12.63
2022-10-17T18:45:20.667Z,11.80
2022-10-17T18:47:52.463Z,12.18
2022-10-17T18:50:20.249Z,12.35
2022-10-17T18:52:49.755Z,11.60
2022-10-17T19:33:43.077Z,12.68
2022-10-17T19:36:11.463Z,12.00
2022-10-17T19:38:40.921Z,12.40
2022-10-17T19:41:09.544Z,12.88
2022-10-17T19:43:37.772Z,12.65
2022-10-17T19:46:06.601Z,12.50
2022-10-17T19:48:35.493Z,12.32
2022-10-17T19:51:04.779Z,11.98
2022-10-17T19:53:32.601Z,23.70
2022-10-17T19:56:00.695Z,34.75
2022-10-17T19:58:28.981Z,57.13
2022-10-17T20:00:57.973Z,16.70
2022-10-17T20:03:26.159Z,14.93
2022-10-17T20:05:53.928Z,15.00
2022-10-17T20:08:23.362Z,14.70
2022-10-17T20:10:51.228Z,12.75
2022-10-17T20:13:19.131Z,13.00
2022-10-17T20:15:54.791Z,13.73
2022-10-17T20:18:22.667Z,13.43
2022-10-17T20:20:50.744Z,13.50
2022-10-17T20:23:18.611Z,12.02
2022-10-17T20:25:50.469Z,12.82
2022-10-17T20:28:21.637Z,13.35
2022-10-17T20:30:49.417Z,11.73
2022-10-17T20:33:17.390Z,12.48
2022-10-17T20:38:13.485Z,11.07
2022-10-17T20:40:41.395Z,12.57
2022-10-17T20:43:11.374Z,12.70
2022-10-17T20:45:50.867Z,12.13
2022-10-17T20:48:19.694Z,12.80
2022-10-17T20:50:47.603Z,12.30
2022-10-17T20:53:36.578Z,12.65
2022-10-17T20:56:04.988Z,12.50
2022-10-17T20:58:34.303Z,12.38
2022-10-17T21:01:05.850Z,12.60
2022-10-17T21:03:35.662Z,11.32
2022-10-17T21:06:03.553Z,10.98
2022-10-17T21:08:31.493Z,11.57
2022-10-17T21:11:07.496Z,13.32
2022-10-17T21:13:36.812Z,12.68
2022-10-17T21:16:08.897Z,13.02
2022-10-17T21:18:37.113Z,12.68
2022-10-17T21:21:08.598Z,12.48
2022-10-17T21:23:36.427Z,46.05
2022-10-17T21:26:07.139Z,32.08
2022-10-17T21:28:36.325Z,16.73
2022-10-17T21:31:11.579Z,14.43
2022-10-17T21:33:39.764Z,15.30
2022-10-17T21:36:07.897Z,14.93
2022-10-17T21:38:36.441Z,15.40
2022-10-17T21:41:05.326Z,15.70
2022-10-17T21:43:33.605Z,15.07
2022-10-17T21:46:06.689Z,14.38
2022-10-17T21:48:34.681Z,13.98
2022-10-17T21:51:03.482Z,14.70
2022-10-17T21:53:31.725Z,15.60
2022-10-17T21:56:00.705Z,15.77
2022-10-17T21:58:29.452Z,15.93
2022-10-17T22:01:04.044Z,16.45
2022-10-17T22:03:34.593Z,16.75
2022-10-17T22:06:12.796Z,16.63
2022-10-17T22:08:50.550Z,15.82
2022-10-17T22:11:23.606Z,16.00
2022-10-17T22:13:54.376Z,16.67
2022-10-17T22:16:22.279Z,17.05
2022-10-17T22:18:51.888Z,16.90
2022-10-17T22:21:21.157Z,17.05
2022-10-17T22:23:55.038Z,16.45
2022-10-17T22:26:22.960Z,16.33
2022-10-17T22:28:50.917Z,16.20
2022-10-17T22:31:18.787Z,17.48
2022-10-17T22:33:47.041Z,16.50
2022-10-17T22:36:16.436Z,16.60
2022-10-17T22:38:45.350Z,17.58
2022-10-17T22:41:13.195Z,15.60
2022-10-17T22:43:41.049Z,17.13
2022-10-17T22:46:09.063Z,17.17
2022-10-17T22:48:38.072Z,17.13
2022-10-17T22:51:05.984Z,16.70
2022-10-17T22:53:37.390Z,16.92
2022-10-17T22:56:07.250Z,17.65
2022-10-17T22:58:35.692Z,17.65
2022-10-17T23:01:04.396Z,16.52
2022-10-17T23:03:32.736Z,19.15
2022-10-17T23:06:00.619Z,18.05
2022-10-17T23:08:29.009Z,16.95
2022-10-17T23:10:58.262Z,17.60
2022-10-17T23:13:26.192Z,16.92
2022-10-17T23:15:54.995Z,17.95
2022-10-17T23:18:23.253Z,16.75
2022-10-17T23:20:51.361Z,17.63
2022-10-17T23:23:19.569Z,16.75
2022-10-17T23:25:47.799Z,17.38
2022-10-17T23:28:17.232Z,17.23
2022-10-17T23:30:45.065Z,18.38
2022-10-17T23:33:13.781Z,16.65
2022-10-17T23:35:41.647Z,17.90
2022-10-17T23:38:09.500Z,17.15
2022-10-17T23:40:37.278Z,18.17
2022-10-17T23:43:05.673Z,18.00
2022-10-17T23:45:37.177Z,18.38
2022-10-17T23:48:05.551Z,18.70
2022-10-17T23:50:33.507Z,17.33
2022-10-17T23:53:01.253Z,17.88
2022-10-17T23:55:29.153Z,17.23
2022-10-17T23:57:56.962Z,17.50
